Isabel L — WDF6141 — position and weather

sailwx.info

Track history (hours):
 
Tides and Currents Weather Stations Pressure Air Temp Water Temp Dewpoint Dewpoint Depression Visibility Wind Speed Wind Dir Waves Ship Positions

Isabel L

Owner: SO CAL SHIP SERVICES, TERMINAL ISLAND, CA. More information available from US FCC via Universal Licensing System and Coast Guard Vessel Documentation Center.

Last reported at 2017-Oct-19 09:32 UTC. Time now 2017-Oct-19 16:57 UTC.
Position N 33°43' W 118°07'.

Length 28 m; draft 2 m.

Type: Ship (hazmat cat B). MMSI: 367471080.

Date/timePositionNaut miles runAvg speedWind from/ knotsBaromVisibWave heightAir tempDewpointWater temp
2017-Oct-19 09:32N 33°43' W 118°07'0 0.2
2017-Oct-19 09:30N 33°43' W 118°07'0 0.0
2017-Oct-19 06:01N 33°43' W 118°07'613.2
2017-Oct-19 05:32N 33°43' W 118°14'114.2
2017-Oct-19 05:28N 33°43' W 118°15'1 2.4
2017-Oct-19 04:55N 33°44' W 118°16'0 0.0
2017-Oct-19 04:13N 33°44' W 118°16'0 0.0
2017-Oct-19 03:52N 33°44' W 118°16'0 0.0
2017-Oct-19 03:30N 33°44' W 118°16'4 8.0
2017-Oct-19 02:59N 33°44' W 118°11'4 8.4
2017-Oct-19 02:30N 33°44' W 118°07'714.6
2017-Oct-19 02:00N 33°37' W 118°08'610.4
2017-Oct-19 01:27N 33°42' W 118°07'1 2.6
2017-Oct-19 01:00N 33°42' W 118°06'0 0.0
2017-Oct-19 00:30N 33°42' W 118°06'2 3.1
2017-Oct-19 00:00N 33°43' W 118°07'0 0.0
2017-Oct-18 23:30N 33°43' W 118°07'3 6.8
2017-Oct-18 23:01N 33°40' W 118°04'610.9
2017-Oct-18 22:30N 33°36' W 118°08'815.4
2017-Oct-18 21:58N 33°44' W 118°06'1 2.2
2017-Oct-18 21:30N 33°43' W 118°07'0 0.0
2017-Oct-18 20:58N 33°43' W 118°07'4 8.4
2017-Oct-18 20:30N 33°40' W 118°04'4 8.2
2017-Oct-18 20:00N 33°37' W 118°07'5 8.8
2017-Oct-18 19:28N 33°39' W 118°12'611.7
2017-Oct-18 18:58N 33°44' W 118°16'0 0.1
2017-Oct-18 18:30N 33°44' W 118°16'510.4
2017-Oct-18 18:00N 33°44' W 118°10'4 7.0
2017-Oct-18 17:30N 33°43' W 118°06'7 8.1
2017-Oct-18 16:39N 33°36' W 118°08'0 0.4
2017-Oct-18 16:31N 33°36' W 118°08'0 0.4
2017-Oct-18 16:00N 33°36' W 118°09'0 0.6
2017-Oct-18 15:28N 33°36' W 118°08'0 0.2
2017-Oct-18 14:52N 33°36' W 118°08'7 3.2
2017-Oct-18 12:35N 33°43' W 118°07'1 7.8
2017-Oct-18 12:27N 33°44' W 118°06'1 2.2
2017-Oct-18 11:59N 33°43' W 118°07'0 0.0
2017-Oct-18 11:20N 33°43' W 118°07'0 0.0
2017-Oct-18 10:59N 33°43' W 118°07'0 0.0
2017-Oct-18 10:30N 33°43' W 118°07'0 0.0
2017-Oct-18 10:00N 33°43' W 118°07'0 0.0
2017-Oct-18 09:30N 33°43' W 118°07'0 0.0
2017-Oct-18 09:00N 33°43' W 118°07'0 0.0
2017-Oct-18 08:30N 33°43' W 118°07'0 0.0
2017-Oct-18 07:59N 33°43' W 118°07'0 0.0
2017-Oct-18 07:31N 33°43' W 118°07'0 0.0
2017-Oct-18 06:58N 33°43' W 118°07'0 0.0
2017-Oct-18 06:30N 33°43' W 118°07'0 0.0
2017-Oct-18 06:00N 33°43' W 118°07'0 0.0
2017-Oct-18 05:31N 33°43' W 118°07'0 0.0
2017-Oct-18 05:00N 33°43' W 118°07'0 0.0
2017-Oct-18 04:30N 33°43' W 118°07'2 2.8
2017-Oct-18 03:49N 33°43' W 118°09'413.4
2017-Oct-18 03:29N 33°43' W 118°14'2 3.5
2017-Oct-18 02:54N 33°44' W 118°16'6 4.3
2017-Oct-18 01:27N 33°44' W 118°09'3 7.2
2017-Oct-18 01:00N 33°42' W 118°06'1 2.5
2017-Oct-18 00:25N 33°43' W 118°07'0 0.1
2017-Oct-17 23:58N 33°43' W 118°07'0 0.0
2017-Oct-17 23:27N 33°43' W 118°07'6 7.8
2017-Oct-17 22:39N 33°37' W 118°07'1 3.4
2017-Oct-17 22:24N 33°37' W 118°08'6 9.4
2017-Oct-17 21:46N 33°43' W 118°07'0 0.0
2017-Oct-17 21:30N 33°43' W 118°07'0 0.0
2017-Oct-17 21:00N 33°43' W 118°07'0 0.0
2017-Oct-17 20:29N 33°43' W 118°07'610.0
2017-Oct-17 19:52N 33°37' W 118°08'1 2.9
2017-Oct-17 19:30N 33°36' W 118°08'612.3
2017-Oct-17 19:00N 33°42' W 118°05'3 5.4
2017-Oct-17 18:30N 33°44' W 118°06'5 9.1
2017-Oct-17 18:00N 33°40' W 118°04'4 8.2
2017-Oct-17 17:30N 33°43' W 118°07'2 3.2
2017-Oct-17 16:58N 33°42' W 118°05'3 5.4
2017-Oct-17 16:29N 33°40' W 118°04'0 0.0
2017-Oct-17 15:53N 33°40' W 118°04'5 9.5
2017-Oct-17 15:24N 33°36' W 118°08'1 2.4
2017-Oct-17 15:00N 33°36' W 118°08'0 0.0
2017-Oct-17 14:30N 33°36' W 118°08'0 0.2
2017-Oct-17 14:00N 33°36' W 118°09'811.1
2017-Oct-17 13:16N 33°44' W 118°07'413.9
2017-Oct-17 13:00N 33°41' W 118°04'4 7.0
2017-Oct-17 12:27N 33°44' W 118°06'1 0.8
2017-Oct-17 11:13N 33°43' W 118°07'0 0.0
2017-Oct-17 11:00N 33°43' W 118°07'0 0.0
2017-Oct-17 10:30N 33°43' W 118°07'0 0.0
2017-Oct-17 10:00N 33°43' W 118°07'0 0.0
2017-Oct-17 09:29N 33°43' W 118°07'0 0.0
2017-Oct-17 07:46N 33°43' W 118°07'0 0.0
2017-Oct-17 07:14N 33°43' W 118°07'0 0.0
2017-Oct-17 06:52N 33°43' W 118°07'0 0.0
2017-Oct-17 06:30N 33°43' W 118°07'0 0.0
2017-Oct-17 06:00N 33°43' W 118°07'0 0.0
2017-Oct-17 05:30N 33°43' W 118°07'0 0.0
2017-Oct-17 05:00N 33°43' W 118°07'1 1.9
2017-Oct-17 04:28N 33°44' W 118°06'713.1
2017-Oct-17 03:58N 33°43' W 118°14'2 2.5
2017-Oct-17 03:10N 33°44' W 118°16'0 0.0
2017-Oct-17 02:56N 33°44' W 118°16'0 0.0
2017-Oct-17 02:30N 33°44' W 118°16'0 0.4
2017-Oct-17 01:59N 33°44' W 118°16'5 9.5
2017-Oct-17 01:29N 33°44' W 118°11'5 5.5
2017-Oct-17 00:32N 33°41' W 118°05'115.3
2017-Oct-17 00:29N 33°42' W 118°06'2 3.3
2017-Oct-17 00:00N 33°43' W 118°07'2 4.5
2017-Oct-16 23:28N 33°41' W 118°08'511.1
2017-Oct-16 23:00N 33°36' W 118°09'714.4
2017-Oct-16 22:30N 33°43' W 118°07'3 7.1
2017-Oct-16 22:00N 33°40' W 118°04'1 1.3
2017-Oct-16 21:29N 33°40' W 118°04'0 0.0
2017-Oct-16 20:36N 33°40' W 118°04'613.6
2017-Oct-16 20:11N 33°36' W 118°08'210.8
2017-Oct-16 20:01N 33°38' W 118°08'610.6
2017-Oct-16 19:29N 33°43' W 118°07'0 0.0
2017-Oct-16 19:00N 33°43' W 118°07'0 0.0
2017-Oct-16 18:30N 33°43' W 118°07'0 0.0
2017-Oct-16 18:00N 33°43' W 118°07'0 0.0
2017-Oct-16 17:30N 33°43' W 118°07'0 0.0
2017-Oct-16 17:00N 33°43' W 118°07'0 0.0
2017-Oct-16 16:30N 33°43' W 118°07'0 0.0
2017-Oct-16 15:58N 33°43' W 118°07'0 0.0
2017-Oct-16 15:29N 33°43' W 118°07'7 6.1
2017-Oct-16 14:16N 33°36' W 118°08'7 0.7
2017-Oct-16 03:45N 33°43' W 118°07'0 0.0
2017-Oct-16 03:30N 33°43' W 118°07'8 4.7
2017-Oct-16 01:54N 33°36' W 118°09'814.4
2017-Oct-16 01:22N 33°43' W 118°07'2 6.1
2017-Oct-16 01:00N 33°41' W 118°05'1 2.5
2017-Oct-16 00:30N 33°42' W 118°06'1 1.7
2017-Oct-15 23:56N 33°43' W 118°06'8 8.6
2017-Oct-15 23:02N 33°36' W 118°09'0 0.5
2017-Oct-15 23:00N 33°36' W 118°09'0 0.2
2017-Oct-15 22:30N 33°36' W 118°08'0 0.0
2017-Oct-15 22:00N 33°36' W 118°08'0 0.0
2017-Oct-15 21:28N 33°36' W 118°08'0 0.0
2017-Oct-15 20:56N 33°36' W 118°08'0 0.0
2017-Oct-15 20:29N 33°36' W 118°08'612.7
2017-Oct-15 19:59N 33°41' W 118°13'4 2.1
2017-Oct-15 17:56N 33°44' W 118°16'0 0.0
2017-Oct-15 17:30N 33°44' W 118°16'0 0.0
2017-Oct-15 16:41N 33°44' W 118°16'0 0.0
2017-Oct-15 16:28N 33°44' W 118°16'0 0.0
2017-Oct-15 16:00N 33°44' W 118°16'0 0.0
2017-Oct-15 15:30N 33°44' W 118°16'2 4.1
2017-Oct-15 14:58N 33°42' W 118°15'8 8.8
2017-Oct-15 14:00N 33°38' W 118°06'510.9
2017-Oct-15 13:30N 33°43' W 118°05'2 3.9
2017-Oct-15 13:01N 33°41' W 118°05'2 3.8
2017-Oct-15 12:30N 33°42' W 118°06'1 1.4
2017-Oct-15 11:58N 33°43' W 118°07'0 0.0
2017-Oct-15 11:30N 33°43' W 118°07'0 0.0
2017-Oct-15 11:00N 33°43' W 118°07'0 0.0
2017-Oct-15 10:30N 33°43' W 118°07'0 0.0
2017-Oct-15 09:59N 33°43' W 118°07'0 0.0
2017-Oct-15 09:30N 33°43' W 118°07'0 0.0
2017-Oct-15 09:00N 33°43' W 118°07'0 0.0
2017-Oct-15 08:30N 33°43' W 118°07'0 0.0
2017-Oct-15 07:59N 33°43' W 118°07'0 0.0
2017-Oct-15 07:30N 33°43' W 118°07'0 0.0
2017-Oct-15 07:00N 33°43' W 118°07'0 0.0
2017-Oct-15 06:30N 33°43' W 118°07'0 0.0
2017-Oct-15 05:59N 33°43' W 118°07'0 0.0
2017-Oct-15 05:30N 33°43' W 118°07'0 0.0
2017-Oct-15 05:01N 33°43' W 118°07'0 0.0
2017-Oct-15 04:30N 33°43' W 118°07'0 0.0
2017-Oct-15 04:00N 33°43' W 118°07'0 0.0
2017-Oct-15 03:30N 33°43' W 118°07'0 0.0
2017-Oct-15 03:00N 33°43' W 118°07'0 0.0
2017-Oct-15 02:30N 33°43' W 118°07'0 0.0
2017-Oct-15 02:00N 33°43' W 118°07'0 0.0
2017-Oct-15 01:30N 33°43' W 118°07'0 0.3
2017-Oct-15 01:00N 33°43' W 118°07'3 6.5
2017-Oct-15 00:30N 33°41' W 118°04'4 7.9
2017-Oct-15 00:00N 33°44' W 118°06'3 6.3
2017-Oct-14 23:30N 33°41' W 118°07'510.7
2017-Oct-14 23:00N 33°36' W 118°08'0 0.0
2017-Oct-14 22:30N 33°36' W 118°08'2 3.5
2017-Oct-14 22:00N 33°37' W 118°10'814.8
2017-Oct-14 21:28N 33°43' W 118°16'1 1.6
2017-Oct-14 21:00N 33°44' W 118°16'0 0.2
2017-Oct-14 20:30N 33°44' W 118°16'0 0.0
2017-Oct-14 20:00N 33°44' W 118°16'0 0.0
2017-Oct-14 19:30N 33°44' W 118°16'0 0.0
2017-Oct-14 19:00N 33°44' W 118°16'  
2017-Oct-10 03:17N 33°44' W 118°16'0 0.0
2017-Oct-10 03:00N 33°44' W 118°16'0 0.0
2017-Oct-10 02:30N 33°44' W 118°16'0 0.0
2017-Oct-10 02:00N 33°44' W 118°16'0 0.0
2017-Oct-10 01:30N 33°44' W 118°16'0 0.0
2017-Oct-10 01:00N 33°44' W 118°16'0 0.0
2017-Oct-10 00:30N 33°44' W 118°16'0 0.0
2017-Oct-10 00:00N 33°44' W 118°16'0 0.0
2017-Oct-09 23:30N 33°44' W 118°16'0 0.0
2017-Oct-09 23:00N 33°44' W 118°16'0 0.0
2017-Oct-09 22:30N 33°44' W 118°16'0 0.0
2017-Oct-09 22:00N 33°44' W 118°16'0 0.0
2017-Oct-09 21:30N 33°44' W 118°16'0 0.0
2017-Oct-09 21:00N 33°44' W 118°16'0 0.0
2017-Oct-09 20:30N 33°44' W 118°16'0 0.0
2017-Oct-09 20:00N 33°44' W 118°16'0 0.0
2017-Oct-09 19:30N 33°44' W 118°16'0 0.0
2017-Oct-09 18:59N 33°44' W 118°16'0 0.0
2017-Oct-09 18:30N 33°44' W 118°16'0 0.0
2017-Oct-09 18:00N 33°44' W 118°16'0 0.0
2017-Oct-09 17:30N 33°44' W 118°16'2 3.8
2017-Oct-09 17:00N 33°43' W 118°14'713.5
2017-Oct-09 16:30N 33°44' W 118°07'611.3
2017-Oct-09 16:00N 33°39' W 118°08'1 1.7
2017-Oct-09 15:30N 33°39' W 118°08'3 5.5
2017-Oct-09 14:59N 33°41' W 118°05'3 6.2
2017-Oct-09 14:29N 33°38' W 118°06'2 1.5
2017-Oct-09 12:58N 33°40' W 118°04'  
Track history (hours):
 
Tides and Currents Weather Stations Pressure Air Temp Water Temp Dewpoint Dewpoint Depression Visibility Wind Speed Wind Dir Waves Ship Positions

Isabel L

Owner: SO CAL SHIP SERVICES, TERMINAL ISLAND, CA. More information available from US FCC via Universal Licensing System and Coast Guard Vessel Documentation Center.

Last reported at 2017-Oct-19 09:32 UTC. Time now 2017-Oct-19 16:57 UTC.
Position N 33°43' W 118°07'.

Length 28 m; draft 2 m.

Type: Ship (hazmat cat B). MMSI: 367471080.

Date/timePositionNaut miles runAvg speedWind from/ knotsBaromVisibWave heightAir tempDewpointWater temp
2017-Oct-19 09:32N 33°43' W 118°07'0 0.2
2017-Oct-19 09:30N 33°43' W 118°07'0 0.0
2017-Oct-19 06:01N 33°43' W 118°07'613.2
2017-Oct-19 05:32N 33°43' W 118°14'114.2
2017-Oct-19 05:28N 33°43' W 118°15'1 2.4
2017-Oct-19 04:55N 33°44' W 118°16'0 0.0
2017-Oct-19 04:13N 33°44' W 118°16'0 0.0
2017-Oct-19 03:52N 33°44' W 118°16'0 0.0
2017-Oct-19 03:30N 33°44' W 118°16'4 8.0
2017-Oct-19 02:59N 33°44' W 118°11'4 8.4
2017-Oct-19 02:30N 33°44' W 118°07'714.6
2017-Oct-19 02:00N 33°37' W 118°08'610.4
2017-Oct-19 01:27N 33°42' W 118°07'1 2.6
2017-Oct-19 01:00N 33°42' W 118°06'0 0.0
2017-Oct-19 00:30N 33°42' W 118°06'2 3.1
2017-Oct-19 00:00N 33°43' W 118°07'0 0.0
2017-Oct-18 23:30N 33°43' W 118°07'3 6.8
2017-Oct-18 23:01N 33°40' W 118°04'610.9
2017-Oct-18 22:30N 33°36' W 118°08'815.4
2017-Oct-18 21:58N 33°44' W 118°06'1 2.2
2017-Oct-18 21:30N 33°43' W 118°07'0 0.0
2017-Oct-18 20:58N 33°43' W 118°07'4 8.4
2017-Oct-18 20:30N 33°40' W 118°04'4 8.2
2017-Oct-18 20:00N 33°37' W 118°07'5 8.8
2017-Oct-18 19:28N 33°39' W 118°12'611.7
2017-Oct-18 18:58N 33°44' W 118°16'0 0.1
2017-Oct-18 18:30N 33°44' W 118°16'510.4
2017-Oct-18 18:00N 33°44' W 118°10'4 7.0
2017-Oct-18 17:30N 33°43' W 118°06'7 8.1
2017-Oct-18 16:39N 33°36' W 118°08'0 0.4
2017-Oct-18 16:31N 33°36' W 118°08'0 0.4
2017-Oct-18 16:00N 33°36' W 118°09'0 0.6
2017-Oct-18 15:28N 33°36' W 118°08'0 0.2
2017-Oct-18 14:52N 33°36' W 118°08'7 3.2
2017-Oct-18 12:35N 33°43' W 118°07'1 7.8
2017-Oct-18 12:27N 33°44' W 118°06'1 2.2
2017-Oct-18 11:59N 33°43' W 118°07'0 0.0
2017-Oct-18 11:20N 33°43' W 118°07'0 0.0
2017-Oct-18 10:59N 33°43' W 118°07'0 0.0
2017-Oct-18 10:30N 33°43' W 118°07'0 0.0
2017-Oct-18 10:00N 33°43' W 118°07'0 0.0
2017-Oct-18 09:30N 33°43' W 118°07'0 0.0
2017-Oct-18 09:00N 33°43' W 118°07'0 0.0
2017-Oct-18 08:30N 33°43' W 118°07'0 0.0
2017-Oct-18 07:59N 33°43' W 118°07'0 0.0
2017-Oct-18 07:31N 33°43' W 118°07'0 0.0
2017-Oct-18 06:58N 33°43' W 118°07'0 0.0
2017-Oct-18 06:30N 33°43' W 118°07'0 0.0
2017-Oct-18 06:00N 33°43' W 118°07'0 0.0
2017-Oct-18 05:31N 33°43' W 118°07'0 0.0
2017-Oct-18 05:00N 33°43' W 118°07'0 0.0
2017-Oct-18 04:30N 33°43' W 118°07'2 2.8
2017-Oct-18 03:49N 33°43' W 118°09'413.4
2017-Oct-18 03:29N 33°43' W 118°14'2 3.5
2017-Oct-18 02:54N 33°44' W 118°16'6 4.3
2017-Oct-18 01:27N 33°44' W 118°09'3 7.2
2017-Oct-18 01:00N 33°42' W 118°06'1 2.5
2017-Oct-18 00:25N 33°43' W 118°07'0 0.1
2017-Oct-17 23:58N 33°43' W 118°07'0 0.0
2017-Oct-17 23:27N 33°43' W 118°07'6 7.8
2017-Oct-17 22:39N 33°37' W 118°07'1 3.4
2017-Oct-17 22:24N 33°37' W 118°08'6 9.4
2017-Oct-17 21:46N 33°43' W 118°07'0 0.0
2017-Oct-17 21:30N 33°43' W 118°07'0 0.0
2017-Oct-17 21:00N 33°43' W 118°07'0 0.0
2017-Oct-17 20:29N 33°43' W 118°07'610.0
2017-Oct-17 19:52N 33°37' W 118°08'1 2.9
2017-Oct-17 19:30N 33°36' W 118°08'612.3
2017-Oct-17 19:00N 33°42' W 118°05'3 5.4
2017-Oct-17 18:30N 33°44' W 118°06'5 9.1
2017-Oct-17 18:00N 33°40' W 118°04'4 8.2
2017-Oct-17 17:30N 33°43' W 118°07'2 3.2
2017-Oct-17 16:58N 33°42' W 118°05'3 5.4
2017-Oct-17 16:29N 33°40' W 118°04'0 0.0
2017-Oct-17 15:53N 33°40' W 118°04'5 9.5
2017-Oct-17 15:24N 33°36' W 118°08'1 2.4
2017-Oct-17 15:00N 33°36' W 118°08'0 0.0
2017-Oct-17 14:30N 33°36' W 118°08'0 0.2
2017-Oct-17 14:00N 33°36' W 118°09'811.1
2017-Oct-17 13:16N 33°44' W 118°07'413.9
2017-Oct-17 13:00N 33°41' W 118°04'4 7.0
2017-Oct-17 12:27N 33°44' W 118°06'1 0.8
2017-Oct-17 11:13N 33°43' W 118°07'0 0.0
2017-Oct-17 11:00N 33°43' W 118°07'0 0.0
2017-Oct-17 10:30N 33°43' W 118°07'0 0.0
2017-Oct-17 10:00N 33°43' W 118°07'0 0.0
2017-Oct-17 09:29N 33°43' W 118°07'0 0.0
2017-Oct-17 07:46N 33°43' W 118°07'0 0.0
2017-Oct-17 07:14N 33°43' W 118°07'0 0.0
2017-Oct-17 06:52N 33°43' W 118°07'0 0.0
2017-Oct-17 06:30N 33°43' W 118°07'0 0.0
2017-Oct-17 06:00N 33°43' W 118°07'0 0.0
2017-Oct-17 05:30N 33°43' W 118°07'0 0.0
2017-Oct-17 05:00N 33°43' W 118°07'1 1.9
2017-Oct-17 04:28N 33°44' W 118°06'713.1
2017-Oct-17 03:58N 33°43' W 118°14'2 2.5
2017-Oct-17 03:10N 33°44' W 118°16'0 0.0
2017-Oct-17 02:56N 33°44' W 118°16'0 0.0
2017-Oct-17 02:30N 33°44' W 118°16'0 0.4
2017-Oct-17 01:59N 33°44' W 118°16'5 9.5
2017-Oct-17 01:29N 33°44' W 118°11'5 5.5
2017-Oct-17 00:32N 33°41' W 118°05'115.3
2017-Oct-17 00:29N 33°42' W 118°06'2 3.3
2017-Oct-17 00:00N 33°43' W 118°07'2 4.5
2017-Oct-16 23:28N 33°41' W 118°08'511.1
2017-Oct-16 23:00N 33°36' W 118°09'714.4
2017-Oct-16 22:30N 33°43' W 118°07'3 7.1
2017-Oct-16 22:00N 33°40' W 118°04'1 1.3
2017-Oct-16 21:29N 33°40' W 118°04'0 0.0
2017-Oct-16 20:36N 33°40' W 118°04'613.6
2017-Oct-16 20:11N 33°36' W 118°08'210.8
2017-Oct-16 20:01N 33°38' W 118°08'610.6
2017-Oct-16 19:29N 33°43' W 118°07'0 0.0
2017-Oct-16 19:00N 33°43' W 118°07'0 0.0
2017-Oct-16 18:30N 33°43' W 118°07'0 0.0
2017-Oct-16 18:00N 33°43' W 118°07'0 0.0
2017-Oct-16 17:30N 33°43' W 118°07'0 0.0
2017-Oct-16 17:00N 33°43' W 118°07'0 0.0
2017-Oct-16 16:30N 33°43' W 118°07'0 0.0
2017-Oct-16 15:58N 33°43' W 118°07'0 0.0
2017-Oct-16 15:29N 33°43' W 118°07'7 6.1
2017-Oct-16 14:16N 33°36' W 118°08'7 0.7
2017-Oct-16 03:45N 33°43' W 118°07'0 0.0
2017-Oct-16 03:30N 33°43' W 118°07'8 4.7
2017-Oct-16 01:54N 33°36' W 118°09'814.4
2017-Oct-16 01:22N 33°43' W 118°07'2 6.1
2017-Oct-16 01:00N 33°41' W 118°05'1 2.5
2017-Oct-16 00:30N 33°42' W 118°06'1 1.7
2017-Oct-15 23:56N 33°43' W 118°06'8 8.6
2017-Oct-15 23:02N 33°36' W 118°09'0 0.5
2017-Oct-15 23:00N 33°36' W 118°09'0 0.2
2017-Oct-15 22:30N 33°36' W 118°08'0 0.0
2017-Oct-15 22:00N 33°36' W 118°08'0 0.0
2017-Oct-15 21:28N 33°36' W 118°08'0 0.0
2017-Oct-15 20:56N 33°36' W 118°08'0 0.0
2017-Oct-15 20:29N 33°36' W 118°08'612.7
2017-Oct-15 19:59N 33°41' W 118°13'4 2.1
2017-Oct-15 17:56N 33°44' W 118°16'0 0.0
2017-Oct-15 17:30N 33°44' W 118°16'0 0.0
2017-Oct-15 16:41N 33°44' W 118°16'0 0.0
2017-Oct-15 16:28N 33°44' W 118°16'0 0.0
2017-Oct-15 16:00N 33°44' W 118°16'0 0.0
2017-Oct-15 15:30N 33°44' W 118°16'2 4.1
2017-Oct-15 14:58N 33°42' W 118°15'8 8.8
2017-Oct-15 14:00N 33°38' W 118°06'510.9
2017-Oct-15 13:30N 33°43' W 118°05'2 3.9
2017-Oct-15 13:01N 33°41' W 118°05'2 3.8
2017-Oct-15 12:30N 33°42' W 118°06'1 1.4
2017-Oct-15 11:58N 33°43' W 118°07'0 0.0
2017-Oct-15 11:30N 33°43' W 118°07'0 0.0
2017-Oct-15 11:00N 33°43' W 118°07'0 0.0
2017-Oct-15 10:30N 33°43' W 118°07'0 0.0
2017-Oct-15 09:59N 33°43' W 118°07'0 0.0
2017-Oct-15 09:30N 33°43' W 118°07'0 0.0
2017-Oct-15 09:00N 33°43' W 118°07'0 0.0
2017-Oct-15 08:30N 33°43' W 118°07'0 0.0
2017-Oct-15 07:59N 33°43' W 118°07'0 0.0
2017-Oct-15 07:30N 33°43' W 118°07'0 0.0
2017-Oct-15 07:00N 33°43' W 118°07'0 0.0
2017-Oct-15 06:30N 33°43' W 118°07'0 0.0
2017-Oct-15 05:59N 33°43' W 118°07'0 0.0
2017-Oct-15 05:30N 33°43' W 118°07'0 0.0
2017-Oct-15 05:01N 33°43' W 118°07'0 0.0
2017-Oct-15 04:30N 33°43' W 118°07'0 0.0
2017-Oct-15 04:00N 33°43' W 118°07'0 0.0
2017-Oct-15 03:30N 33°43' W 118°07'0 0.0
2017-Oct-15 03:00N 33°43' W 118°07'0 0.0
2017-Oct-15 02:30N 33°43' W 118°07'0 0.0
2017-Oct-15 02:00N 33°43' W 118°07'0 0.0
2017-Oct-15 01:30N 33°43' W 118°07'0 0.3
2017-Oct-15 01:00N 33°43' W 118°07'3 6.5
2017-Oct-15 00:30N 33°41' W 118°04'4 7.9
2017-Oct-15 00:00N 33°44' W 118°06'3 6.3
2017-Oct-14 23:30N 33°41' W 118°07'510.7
2017-Oct-14 23:00N 33°36' W 118°08'0 0.0
2017-Oct-14 22:30N 33°36' W 118°08'2 3.5
2017-Oct-14 22:00N 33°37' W 118°10'814.8
2017-Oct-14 21:28N 33°43' W 118°16'1 1.6
2017-Oct-14 21:00N 33°44' W 118°16'0 0.2
2017-Oct-14 20:30N 33°44' W 118°16'0 0.0
2017-Oct-14 20:00N 33°44' W 118°16'0 0.0
2017-Oct-14 19:30N 33°44' W 118°16'0 0.0
2017-Oct-14 19:00N 33°44' W 118°16'  
2017-Oct-10 03:17N 33°44' W 118°16'0 0.0
2017-Oct-10 03:00N 33°44' W 118°16'0 0.0
2017-Oct-10 02:30N 33°44' W 118°16'0 0.0
2017-Oct-10 02:00N 33°44' W 118°16'0 0.0
2017-Oct-10 01:30N 33°44' W 118°16'0 0.0
2017-Oct-10 01:00N 33°44' W 118°16'0 0.0
2017-Oct-10 00:30N 33°44' W 118°16'0 0.0
2017-Oct-10 00:00N 33°44' W 118°16'0 0.0
2017-Oct-09 23:30N 33°44' W 118°16'0 0.0
2017-Oct-09 23:00N 33°44' W 118°16'0 0.0
2017-Oct-09 22:30N 33°44' W 118°16'0 0.0
2017-Oct-09 22:00N 33°44' W 118°16'0 0.0
2017-Oct-09 21:30N 33°44' W 118°16'0 0.0
2017-Oct-09 21:00N 33°44' W 118°16'0 0.0
2017-Oct-09 20:30N 33°44' W 118°16'0 0.0
2017-Oct-09 20:00N 33°44' W 118°16'0 0.0
2017-Oct-09 19:30N 33°44' W 118°16'0 0.0
2017-Oct-09 18:59N 33°44' W 118°16'0 0.0
2017-Oct-09 18:30N 33°44' W 118°16'0 0.0
2017-Oct-09 18:00N 33°44' W 118°16'0 0.0
2017-Oct-09 17:30N 33°44' W 118°16'2 3.8
2017-Oct-09 17:00N 33°43' W 118°14'713.5
2017-Oct-09 16:30N 33°44' W 118°07'611.3
2017-Oct-09 16:00N 33°39' W 118°08'1 1.7
2017-Oct-09 15:30N 33°39' W 118°08'3 5.5
2017-Oct-09 14:59N 33°41' W 118°05'3 6.2
2017-Oct-09 14:29N 33°38' W 118°06'2 1.5
2017-Oct-09 12:58N 33°40' W 118°04'  

Dump ship's entire track history